sensor_id;sensor_type;location;lat;lon;timestamp;pressure;altitude;pressure_sealevel;temperature;humidity
49473;BME280;73594;50.944;6.950;2024-02-15T00:02:13;101348.41;;;11.15;100.00
49473;BME280;73594;50.944;6.950;2024-02-15T00:04:39;101350.50;;;11.13;100.00
49473;BME280;73594;50.944;6.950;2024-02-15T00:07:04;101355.34;;;11.11;100.00
49473;BME280;73594;50.944;6.950;2024-02-15T00:09:30;101354.03;;;11.14;100.00
49473;BME280;73594;50.944;6.950;2024-02-15T00:11:56;101351.00;;;11.10;100.00
49473;BME280;73594;50.944;6.950;2024-02-15T00:14:21;101349.34;;;11.09;100.00
49473;BME280;73594;50.944;6.950;2024-02-15T00:16:47;101343.13;;;11.09;100.00
49473;BME280;73594;50.944;6.950;2024-02-15T00:19:12;101345.00;;;11.08;100.00
49473;BME280;73594;50.944;6.950;2024-02-15T00:21:43;101349.09;;;11.11;100.00
49473;BME280;73594;50.944;6.950;2024-02-15T00:24:08;101339.59;;;11.08;100.00
49473;BME280;73594;50.944;6.950;2024-02-15T00:26:34;101345.00;;;11.08;100.00
49473;BME280;73594;50.944;6.950;2024-02-15T00:28:59;101349.09;;;11.11;100.00
49473;BME280;73594;50.944;6.950;2024-02-15T00:31:24;101351.56;;;11.12;100.00
49473;BME280;73594;50.944;6.950;2024-02-15T00:33:49;101346.16;;;11.12;100.00
49473;BME280;73594;50.944;6.950;2024-02-15T00:36:15;101339.09;;;11.11;100.00
49473;BME280;73594;50.944;6.950;2024-02-15T00:38:41;101347.78;;;11.13;100.00
49473;BME280;73594;50.944;6.950;2024-02-15T00:41:08;101354.25;;;11.12;100.00
49473;BME280;73594;50.944;6.950;2024-02-15T00:43:36;101346.06;;;11.07;100.00
49473;BME280;73594;50.944;6.950;2024-02-15T00:46:02;101355.34;;;11.11;100.00
49473;BME280;73594;50.944;6.950;2024-02-15T00:48:27;101347.13;;;11.06;100.00
49473;BME280;73594;50.944;6.950;2024-02-15T00:50:55;101355.34;;;11.11;100.00
49473;BME280;73594;50.944;6.950;2024-02-15T00:53:21;101352.88;;;11.10;100.00
49473;BME280;73594;50.944;6.950;2024-02-15T00:55:46;101348.28;;;11.10;100.00
49473;BME280;73594;50.944;6.950;2024-02-15T00:58:11;101353.69;;;11.10;100.00
49473;BME280;73594;50.944;6.950;2024-02-15T01:00:37;101350.25;;;11.15;100.00
49473;BME280;73594;50.944;6.950;2024-02-15T01:03:03;101354.84;;;11.14;100.00
49473;BME280;73594;50.944;6.950;2024-02-15T01:05:29;101344.50;;;11.11;100.00
49473;BME280;73594;50.944;6.950;2024-02-15T01:07:55;101358.63;;;11.13;100.00
49473;BME280;73594;50.944;6.950;2024-02-15T01:10:21;101352.38;;;11.13;100.00
49473;BME280;73594;50.944;6.950;2024-02-15T01:12:46;101345.91;;;11.14;100.00
49473;BME280;73594;50.944;6.950;2024-02-15T01:15:11;101354.63;;;11.16;100.00
49473;BME280;73594;50.944;6.950;2024-02-15T01:17:37;101351.69;;;11.17;100.00
49473;BME280;73594;50.944;6.950;2024-02-15T01:20:02;101341.91;;;11.16;100.00
49473;BME280;73594;50.944;6.950;2024-02-15T01:22:28;101346.25;;;11.17;100.00
49473;BME280;73594;50.944;6.950;2024-02-15T01:24:54;101348.41;;;11.15;100.00
49473;BME280;73594;50.944;6.950;2024-02-15T01:27:19;101338.84;;;11.13;100.00
49473;BME280;73594;50.944;6.950;2024-02-15T01:29:45;101340.84;;;11.17;100.00
49473;BME280;73594;50.944;6.950;2024-02-15T01:32:10;101335.69;;;11.16;100.00
49473;BME280;73594;50.944;6.950;2024-02-15T01:34:36;101337.56;;;11.15;100.00
49473;BME280;73594;50.944;6.950;2024-02-15T01:37:01;101330.41;;;11.09;100.00
49473;BME280;73594;50.944;6.950;2024-02-15T01:39:26;101342.75;;;11.17;100.00
49473;BME280;73594;50.944;6.950;2024-02-15T01:41:52;101350.59;;;11.18;100.00
49473;BME280;73594;50.944;6.950;2024-02-15T01:44:21;101346.84;;;11.19;100.00
49473;BME280;73594;50.944;6.950;2024-02-15T01:46:47;101344.03;;;11.14;100.00
49473;BME280;73594;50.944;6.950;2024-02-15T01:49:14;101341.56;;;11.13;100.00
49473;BME280;73594;50.944;6.950;2024-02-15T01:51:41;101332.53;;;11.07;100.00
49473;BME280;73594;50.944;6.950;2024-02-15T01:54:09;101339.59;;;11.08;100.00
49473;BME280;73594;50.944;6.950;2024-02-15T01:56:35;101334.69;;;11.05;100.00
49473;BME280;73594;50.944;6.950;2024-02-15T01:59:02;101330.31;;;11.04;100.00
49473;BME280;73594;50.944;6.950;2024-02-15T02:01:30;101329.25;;;11.05;100.00
49473;BME280;73594;50.944;6.950;2024-02-15T02:03:58;101324.91;;;11.04;100.00
49473;BME280;73594;50.944;6.950;2024-02-15T02:06:24;101324.34;;;11.02;100.00
49473;BME280;73594;50.944;6.950;2024-02-15T02:08:49;101324.34;;;11.02;100.00
49473;BME280;73594;50.944;6.950;2024-02-15T02:11:14;101314.34;;;11.03;100.00
49473;BME280;73594;50.944;6.950;2024-02-15T02:13:40;101325.50;;;11.06;100.00
49473;BME280;73594;50.944;6.950;2024-02-15T02:16:30;101321.22;;;11.10;100.00
49473;BME280;73594;50.944;6.950;2024-02-15T02:18:58;101315.25;;;11.08;100.00
49473;BME280;73594;50.944;6.950;2024-02-15T02:21:25;101315.81;;;11.10;100.00
49473;BME280;73594;50.944;6.950;2024-02-15T02:23:57;101314.75;;;11.11;100.00
49473;BME280;73594;50.944;6.950;2024-02-15T02:26:24;101303.34;;;11.09;100.00
49473;BME280;73594;50.944;6.950;2024-02-15T02:28:50;101302.78;;;11.07;100.00
49473;BME280;73594;50.944;6.950;2024-02-15T02:31:15;101303.84;;;11.06;100.00
49473;BME280;73594;50.944;6.950;2024-02-15T02:33:41;101301.38;;;11.05;100.00
49473;BME280;73594;50.944;6.950;2024-02-15T02:36:07;101304.66;;;11.07;100.00
49473;BME280;73594;50.944;6.950;2024-02-15T02:38:35;101298.19;;;11.08;100.00
49473;BME280;73594;50.944;6.950;2024-02-15T02:41:04;101299.25;;;11.07;100.00
49473;BME280;73594;50.944;6.950;2024-02-15T02:43:29;101306.56;;;11.06;100.00
49473;BME280;73594;50.944;6.950;2024-02-15T02:45:54;101297.38;;;11.07;100.00
49473;BME280;73594;50.944;6.950;2024-02-15T02:48:20;101295.47;;;11.08;100.00
49473;BME280;73594;50.944;6.950;2024-02-15T02:50:46;101281.06;;;11.02;100.00
49473;BME280;73594;50.944;6.950;2024-02-15T02:53:13;101290.81;;;11.03;100.00
49473;BME280;73594;50.944;6.950;2024-02-15T02:55:40;101285.66;;;11.02;100.00
49473;BME280;73594;50.944;6.950;2024-02-15T02:58:06;101287.78;;;11.00;100.00
49473;BME280;73594;50.944;6.950;2024-02-15T03:00:33;101284.00;;;11.01;100.00
49473;BME280;73594;50.944;6.950;2024-02-15T03:02:58;101279.91;;;10.98;100.00
49473;BME280;73594;50.944;6.950;2024-02-15T03:05:25;101278.78;;;10.94;100.00
49473;BME280;73594;50.944;6.950;2024-02-15T03:07:50;101270.50;;;11.01;100.00
49473;BME280;73594;50.944;6.950;2024-02-15T03:10:17;101272.06;;;10.96;100.00
49473;BME280;73594;50.944;6.950;2024-02-15T03:12:44;101271.22;;;10.96;100.00
49473;BME280;73594;50.944;6.950;2024-02-15T03:15:13;101271.22;;;10.96;100.00
49473;BME280;73594;50.944;6.950;2024-02-15T03:17:42;101264.09;;;10.90;100.00
49473;BME280;73594;50.944;6.950;2024-02-15T03:20:09;101264.34;;;10.88;100.00
49473;BME280;73594;50.944;6.950;2024-02-15T03:22:56;101273.78;;;10.86;100.00
49473;BME280;73594;50.944;6.950;2024-02-15T03:25:22;101270.50;;;10.84;100.00
49473;BME280;73594;50.944;6.950;2024-02-15T03:27:51;101273.69;;;10.81;100.00
49473;BME280;73594;50.944;6.950;2024-02-15T03:30:18;101271.56;;;10.83;100.00
49473;BME280;73594;50.944;6.950;2024-02-15T03:32:47;101270.50;;;10.84;100.00
49473;BME280;73594;50.944;6.950;2024-02-15T03:35:22;101257.22;;;10.82;100.00
49473;BME280;73594;50.944;6.950;2024-02-15T03:37:48;101268.75;;;10.78;100.00
49473;BME280;73594;50.944;6.950;2024-02-15T03:40:18;101254.66;;;10.76;100.00
49473;BME280;73594;50.944;6.950;2024-02-15T03:42:44;101251.94;;;10.76;100.00
49473;BME280;73594;50.944;6.950;2024-02-15T03:45:09;101259.81;;;10.77;100.00
49473;BME280;73594;50.944;6.950;2024-02-15T03:47:36;101256.28;;;10.77;100.00
49473;BME280;73594;50.944;6.950;2024-02-15T03:50:02;101261.69;;;10.77;100.00
49473;BME280;73594;50.944;6.950;2024-02-15T03:52:28;101257.72;;;10.79;100.00
49473;BME280;73594;50.944;6.950;2024-02-15T03:54:56;101260.41;;;10.79;100.00
49473;BME280;73594;50.944;6.950;2024-02-15T03:57:25;101253.59;;;10.77;100.00
49473;BME280;73594;50.944;6.950;2024-02-15T03:59:51;101261.69;;;10.77;100.00
49473;BME280;73594;50.944;6.950;2024-02-15T04:02:21;101252.88;;;10.81;100.00
49473;BME280;73594;50.944;6.950;2024-02-15T04:04:49;101256.41;;;10.82;100.00
49473;BME280;73594;50.944;6.950;2024-02-15T04:07:18;101253.69;;;10.82;100.00
49473;BME280;73594;50.944;6.950;2024-02-15T04:09:45;101267.78;;;10.84;100.00
49473;BME280;73594;50.944;6.950;2024-02-15T04:12:11;101258.53;;;10.80;100.00
49473;BME280;73594;50.944;6.950;2024-02-15T04:14:37;101266.53;;;10.75;100.00
49473;BME280;73594;50.944;6.950;2024-02-15T04:17:04;101257.28;;;10.71;100.00
49473;BME280;73594;50.944;6.950;2024-02-15T04:19:30;101261.03;;;10.70;100.00
49473;BME280;73594;50.944;6.950;2024-02-15T04:21:56;101264.25;;;10.67;100.00
49473;BME280;73594;50.944;6.950;2024-02-15T04:24:21;101258.25;;;10.64;100.00
49473;BME280;73594;50.944;6.950;2024-02-15T04:26:47;101252.28;;;10.62;100.00
49473;BME280;73594;50.944;6.950;2024-02-15T04:29:14;101250.16;;;10.64;100.00
49473;BME280;73594;50.944;6.950;2024-02-15T04:31:40;101251.78;;;10.65;100.00
49473;BME280;73594;50.944;6.950;2024-02-15T04:34:08;101244.81;;;10.70;100.00
49473;BME280;73594;50.944;6.950;2024-02-15T04:36:35;101252.94;;;10.70;100.00
49473;BME280;73594;50.944;6.950;2024-02-15T04:39:01;101256.22;;;10.72;100.00
49473;BME280;73594;50.944;6.950;2024-02-15T04:41:29;101255.16;;;10.73;100.00
49473;BME280;73594;50.944;6.950;2024-02-15T04:43:55;101253.50;;;10.72;100.00
49473;BME280;73594;50.944;6.950;2024-02-15T04:46:20;101262.19;;;10.74;100.00
49473;BME280;73594;50.944;6.950;2024-02-15T04:48:49;101251.94;;;10.76;100.00
49473;BME280;73594;50.944;6.950;2024-02-15T04:51:15;101258.53;;;10.80;100.00
49473;BME280;73594;50.944;6.950;2024-02-15T04:53:42;101255.34;;;10.83;100.00
49473;BME280;73594;50.944;6.950;2024-02-15T04:56:07;101262.38;;;10.84;100.00
49473;BME280;73594;50.944;6.950;2024-02-15T04:58:39;101258.63;;;10.85;100.00
49473;BME280;73594;50.944;6.950;2024-02-15T05:01:12;101241.91;;;10.88;100.00
49473;BME280;73594;50.944;6.950;2024-02-15T05:03:37;101244.09;;;10.91;100.00
49473;BME280;73594;50.944;6.950;2024-02-15T05:06:03;101244.91;;;10.91;100.00
49473;BME280;73594;50.944;6.950;2024-02-15T05:08:30;101235.50;;;10.94;100.00
49473;BME280;73594;50.944;6.950;2024-02-15T05:10:57;101240.47;;;11.02;100.00
49473;BME280;73594;50.944;6.950;2024-02-15T05:13:26;101238.34;;;11.04;100.00
49473;BME280;73594;50.944;6.950;2024-02-15T05:15:51;101241.38;;;11.08;100.00
49473;BME280;73594;50.944;6.950;2024-02-15T05:18:16;101232.38;;;11.02;100.00
49473;BME280;73594;50.944;6.950;2024-02-15T05:20:42;101241.63;;;11.06;100.00
49473;BME280;73594;50.944;6.950;2024-02-15T05:23:08;101234.81;;;11.04;100.00
49473;BME280;73594;50.944;6.950;2024-02-15T05:25:33;101225.88;;;11.03;100.00
49473;BME280;73594;50.944;6.950;2024-02-15T05:28:00;101228.34;;;11.05;100.00
49473;BME280;73594;50.944;6.950;2024-02-15T05:30:26;101226.97;;;11.02;100.00
49473;BME280;73594;50.944;6.950;2024-02-15T05:32:52;101227.78;;;11.03;100.00
49473;BME280;73594;50.944;6.950;2024-02-15T05:35:18;101230.81;;;11.06;100.00
49473;BME280;73594;50.944;6.950;2024-02-15T05:37:44;101226.47;;;11.05;100.00
49473;BME280;73594;50.944;6.950;2024-02-15T05:40:09;101229.16;;;11.05;100.00
49473;BME280;73594;50.944;6.950;2024-02-15T05:42:42;101228.59;;;11.03;100.00
49473;BME280;73594;50.944;6.950;2024-02-15T05:47:54;101220.78;;;11.07;100.00
49473;BME280;73594;50.944;6.950;2024-02-15T05:50:38;101231.03;;;11.05;100.00
49473;BME280;73594;50.944;6.950;2024-02-15T05:53:04;101227.03;;;11.07;100.00
49473;BME280;73594;50.944;6.950;2024-02-15T05:55:30;101222.94;;;11.05;100.00
49473;BME280;73594;50.944;6.950;2024-02-15T05:57:58;101217.19;;;11.01;100.00
49473;BME280;73594;50.944;6.950;2024-02-15T06:00:24;101219.91;;;11.01;100.00
49473;BME280;73594;50.944;6.950;2024-02-15T06:02:50;101224.50;;;11.01;100.00
49473;BME280;73594;50.944;6.950;2024-02-15T06:05:19;101223.75;;;11.05;100.00
49473;BME280;73594;50.944;6.950;2024-02-15T06:07:45;101237.53;;;11.04;100.00
49473;BME280;73594;50.944;6.950;2024-02-15T06:10:11;101236.97;;;11.02;100.00
49473;BME280;73594;50.944;6.950;2024-02-15T06:12:36;101224.50;;;11.01;100.00
49473;BME280;73594;50.944;6.950;2024-02-15T06:15:03;101227.19;;;11.01;100.00
49473;BME280;73594;50.944;6.950;2024-02-15T06:17:30;101219.59;;;10.98;100.00
49473;BME280;73594;50.944;6.950;2024-02-15T06:19:57;101221.53;;;11.02;100.00
49473;BME280;73594;50.944;6.950;2024-02-15T06:22:22;101218.28;;;11.00;100.00
49473;BME280;73594;50.944;6.950;2024-02-15T06:24:47;101225.31;;;11.01;100.00
49473;BME280;73594;50.944;6.950;2024-02-15T06:27:13;101227.78;;;11.03;100.00
49473;BME280;73594;50.944;6.950;2024-02-15T06:29:39;101223.75;;;11.05;100.00
49473;BME280;73594;50.944;6.950;2024-02-15T06:32:23;101219.41;;;11.04;100.00
49473;BME280;73594;50.944;6.950;2024-02-15T06:35:08;101216.13;;;11.02;100.00
49473;BME280;73594;50.944;6.950;2024-02-15T06:37:51;101213.44;;;11.02;100.00
49473;BME280;73594;50.944;6.950;2024-02-15T06:40:35;101216.38;;;11.01;100.00
49473;BME280;73594;50.944;6.950;2024-02-15T06:43:01;101222.13;;;11.04;100.00
49473;BME280;73594;50.944;6.950;2024-02-15T06:45:26;101220.06;;;11.11;100.00
49473;BME280;73594;50.944;6.950;2024-02-15T06:47:52;101225.47;;;11.11;100.00
49473;BME280;73594;50.944;6.950;2024-02-15T06:50:17;101224.06;;;11.09;100.00
49473;BME280;73594;50.944;6.950;2024-02-15T06:52:43;101230.63;;;11.13;100.00
49473;BME280;73594;50.944;6.950;2024-02-15T06:55:09;101231.44;;;11.13;100.00
49473;BME280;73594;50.944;6.950;2024-02-15T06:57:39;101226.53;;;11.10;100.00
49473;BME280;73594;50.944;6.950;2024-02-15T07:00:09;101235.22;;;11.12;100.00
49473;BME280;73594;50.944;6.950;2024-02-15T07:02:39;101239.50;;;11.08;100.00
49473;BME280;73594;50.944;6.950;2024-02-15T07:05:05;101234.91;;;11.09;100.00
49473;BME280;73594;50.944;6.950;2024-02-15T07:07:31;101239.25;;;11.10;100.00
49473;BME280;73594;50.944;6.950;2024-02-15T07:09:57;101232.88;;;11.16;100.00
49473;BME280;73594;50.944;6.950;2024-02-15T07:12:23;101238.28;;;11.16;100.00
49473;BME280;73594;50.944;6.950;2024-02-15T07:14:48;101230.97;;;11.16;100.00
49473;BME280;73594;50.944;6.950;2024-02-15T07:17:14;101232.63;;;11.17;100.00
49473;BME280;73594;50.944;6.950;2024-02-15T07:19:43;101234.81;;;11.20;100.00
49473;BME280;73594;50.944;6.950;2024-02-15T07:22:09;101234.56;;;11.22;100.00
49473;BME280;73594;50.944;6.950;2024-02-15T07:24:35;101233.25;;;11.24;100.00
49473;BME280;73594;50.944;6.950;2024-02-15T07:27:06;101239.56;;;11.30;100.00
49473;BME280;73594;50.944;6.950;2024-02-15T07:29:31;101239.56;;;11.30;100.00
49473;BME280;73594;50.944;6.950;2024-02-15T07:32:00;101236.59;;;11.32;100.00
49473;BME280;73594;50.944;6.950;2024-02-15T07:34:25;101237.91;;;11.29;100.00
49473;BME280;73594;50.944;6.950;2024-02-15T07:36:51;101245.03;;;11.35;100.00
49473;BME280;73594;50.944;6.950;2024-02-15T07:39:17;101242.06;;;11.37;100.00
49473;BME280;73594;50.944;6.950;2024-02-15T07:41:48;101249.13;;;11.38;100.00
49473;BME280;73594;50.944;6.950;2024-02-15T07:44:15;101244.78;;;11.37;100.00
49473;BME280;73594;50.944;6.950;2024-02-15T07:46:42;101244.28;;;11.40;100.00
49473;BME280;73594;50.944;6.950;2024-02-15T07:49:08;101240.00;;;11.44;100.00
49473;BME280;73594;50.944;6.950;2024-02-15T07:51:33;101248.75;;;11.51;100.00
49473;BME280;73594;50.944;6.950;2024-02-15T07:53:59;101239.56;;;11.52;100.00
49473;BME280;73594;50.944;6.950;2024-02-15T07:56:26;101236.84;;;11.52;100.00
49473;BME280;73594;50.944;6.950;2024-02-15T07:58:52;101231.44;;;11.52;100.00
49473;BME280;73594;50.944;6.950;2024-02-15T08:01:17;101249.41;;;11.58;100.00
49473;BME280;73594;50.944;6.950;2024-02-15T08:03:46;101250.50;;;11.57;100.00
49473;BME280;73594;50.944;6.950;2024-02-15T08:06:12;101253.19;;;11.57;100.00
49473;BME280;73594;50.944;6.950;2024-02-15T08:08:41;101248.28;;;11.54;100.00
49473;BME280;73594;50.944;6.950;2024-02-15T08:11:08;101256.88;;;11.51;100.00
49473;BME280;73594;50.944;6.950;2024-02-15T08:13:50;101252.88;;;11.53;100.00
49473;BME280;73594;50.944;6.950;2024-02-15T08:16:21;101254.78;;;11.53;100.00
49473;BME280;73594;50.944;6.950;2024-02-15T08:18:53;101249.34;;;11.53;100.00
49473;BME280;73594;50.944;6.950;2024-02-15T08:21:30;101246.03;;;11.51;100.00
49473;BME280;73594;50.944;6.950;2024-02-15T08:24:00;101240.63;;;11.51;100.00
49473;BME280;73594;50.944;6.950;2024-02-15T08:26:26;101233.69;;;11.55;100.00
49473;BME280;73594;50.944;6.950;2024-02-15T08:28:51;101232.09;;;11.59;100.00
49473;BME280;73594;50.944;6.950;2024-02-15T08:31:17;101234.81;;;11.59;100.00
49473;BME280;73594;50.944;6.950;2024-02-15T08:33:44;101225.69;;;11.65;100.00
49473;BME280;73594;50.944;6.950;2024-02-15T08:36:11;101220.44;;;11.58;100.00
49473;BME280;73594;50.944;6.950;2024-02-15T08:38:39;101224.03;;;11.64;100.00
49473;BME280;73594;50.944;6.950;2024-02-15T08:41:04;101221.59;;;11.63;100.00
49473;BME280;73594;50.944;6.950;2024-02-15T08:43:31;101212.69;;;11.67;100.00
49473;BME280;73594;50.944;6.950;2024-02-15T08:45:59;101209.88;;;11.57;100.00
49473;BME280;73594;50.944;6.950;2024-02-15T08:48:25;101211.50;;;11.58;100.00
49473;BME280;73594;50.944;6.950;2024-02-15T08:50:53;101201.66;;;11.52;100.00
49473;BME280;73594;50.944;6.950;2024-02-15T08:53:19;101205.53;;;11.56;100.00
49473;BME280;73594;50.944;6.950;2024-02-15T08:55:48;101199.59;;;11.59;100.00
49473;BME280;73594;50.944;6.950;2024-02-15T08:58:13;101200.47;;;11.65;100.00
49473;BME280;73594;50.944;6.950;2024-02-15T09:00:39;101203.66;;;11.78;100.00
49473;BME280;73594;50.944;6.950;2024-02-15T09:03:10;101197.03;;;11.91;100.00
49473;BME280;73594;50.944;6.950;2024-02-15T09:05:35;101203.38;;;12.02;100.00
49473;BME280;73594;50.944;6.950;2024-02-15T09:08:00;101189.88;;;12.07;100.00
49473;BME280;73594;50.944;6.950;2024-02-15T09:10:26;101203.47;;;12.12;100.00
49473;BME280;73594;50.944;6.950;2024-02-15T09:12:52;101196.00;;;12.24;100.00
49473;BME280;73594;50.944;6.950;2024-02-15T09:15:17;101195.81;;;12.31;100.00
49473;BME280;73594;50.944;6.950;2024-02-15T09:17:44;101191.28;;;12.41;100.00
49473;BME280;73594;50.944;6.950;2024-02-15T09:20:15;101189.66;;;12.40;100.00
49473;BME280;73594;50.944;6.950;2024-02-15T09:22:51;101188.97;;;12.55;100.00
49473;BME280;73594;50.944;6.950;2024-02-15T09:25:20;101184.47;;;12.66;100.00
49473;BME280;73594;50.944;6.950;2024-02-15T09:27:46;101187.78;;;12.78;100.00
49473;BME280;73594;50.944;6.950;2024-02-15T09:30:12;101186.97;;;12.77;100.00
49473;BME280;73594;50.944;6.950;2024-02-15T09:32:41;101201.41;;;12.83;100.00
49473;BME280;73594;50.944;6.950;2024-02-15T09:35:08;101197.59;;;12.84;100.00
49473;BME280;73594;50.944;6.950;2024-02-15T09:37:34;101182.66;;;12.81;100.00
49473;BME280;73594;50.944;6.950;2024-02-15T09:40:00;101181.88;;;12.86;100.00
49473;BME280;73594;50.944;6.950;2024-02-15T09:42:30;101193.53;;;12.81;100.00
49473;BME280;73594;50.944;6.950;2024-02-15T09:44:55;101197.94;;;12.93;100.00
49473;BME280;73594;50.944;6.950;2024-02-15T09:47:21;101193.41;;;13.03;100.00
49473;BME280;73594;50.944;6.950;2024-02-15T09:49:48;101188.56;;;13.10;100.00
49473;BME280;73594;50.944;6.950;2024-02-15T09:52:14;101193.00;;;13.22;100.00
49473;BME280;73594;50.944;6.950;2024-02-15T09:54:43;101195.53;;;13.38;100.00
49473;BME280;73594;50.944;6.950;2024-02-15T09:57:10;101188.53;;;13.48;100.00
49473;BME280;73594;50.944;6.950;2024-02-15T09:59:37;101192.63;;;13.60;100.00
49473;BME280;73594;50.944;6.950;2024-02-15T10:02:03;101199.19;;;13.74;100.00
49473;BME280;73594;50.944;6.950;2024-02-15T10:04:28;101194.91;;;13.79;100.00
49473;BME280;73594;50.944;6.950;2024-02-15T10:06:54;101195.44;;;13.86;99.90
49473;BME280;73594;50.944;6.950;2024-02-15T10:09:27;101193.28;;;13.88;99.20
49473;BME280;73594;50.944;6.950;2024-02-15T10:11:54;101192.47;;;13.82;99.77
49473;BME280;73594;50.944;6.950;2024-02-15T10:14:28;101187.84;;;13.88;98.81
49473;BME280;73594;50.944;6.950;2024-02-15T10:16:54;101183.22;;;13.78;99.10
49473;BME280;73594;50.944;6.950;2024-02-15T10:19:21;101194.03;;;13.73;99.03
49473;BME280;73594;50.944;6.950;2024-02-15T10:21:52;101185.59;;;13.69;99.83
49473;BME280;73594;50.944;6.950;2024-02-15T10:24:22;101180.69;;;13.66;99.89
49473;BME280;73594;50.944;6.950;2024-02-15T10:26:49;101169.31;;;13.69;98.69
49473;BME280;73594;50.944;6.950;2024-02-15T10:29:15;101179.69;;;13.77;98.74
49473;BME280;73594;50.944;6.950;2024-02-15T10:34:21;101179.16;;;13.91;96.98
49473;BME280;73594;50.944;6.950;2024-02-15T10:36:47;101181.06;;;13.95;96.63
49473;BME280;73594;50.944;6.950;2024-02-15T10:39:16;101182.16;;;14.04;96.96
49473;BME280;73594;50.944;6.950;2024-02-15T10:41:45;101175.16;;;14.14;96.35
49473;BME280;73594;50.944;6.950;2024-02-15T10:44:18;101177.59;;;14.20;95.58
49473;BME280;73594;50.944;6.950;2024-02-15T10:46:51;101173.50;;;14.23;96.10
49473;BME280;73594;50.944;6.950;2024-02-15T10:49:26;101170.25;;;14.21;94.61
49473;BME280;73594;50.944;6.950;2024-02-15T10:51:57;101164.53;;;14.27;95.44
49473;BME280;73594;50.944;6.950;2024-02-15T10:56:54;101164.00;;;14.40;93.76
49473;BME280;73594;50.944;6.950;2024-02-15T10:59:24;101164.59;;;14.53;93.84
49473;BME280;73594;50.944;6.950;2024-02-15T11:01:59;101151.53;;;14.50;93.54
49473;BME280;73594;50.944;6.950;2024-02-15T11:04:25;101152.34;;;14.55;93.04
49473;BME280;73594;50.944;6.950;2024-02-15T11:06:58;101155.59;;;14.57;92.56
49473;BME280;73594;50.944;6.950;2024-02-15T11:09:24;101156.41;;;14.63;91.20
49473;BME280;73594;50.944;6.950;2024-02-15T11:11:54;101145.78;;;14.66;90.35
49473;BME280;73594;50.944;6.950;2024-02-15T11:14:30;101151.50;;;14.70;91.76
49473;BME280;73594;50.944;6.950;2024-02-15T11:16:57;101143.06;;;14.77;91.24
49473;BME280;73594;50.944;6.950;2024-02-15T11:19:49;101143.31;;;14.90;90.48
49473;BME280;73594;50.944;6.950;2024-02-15T11:22:16;101142.19;;;15.07;89.14
49473;BME280;73594;50.944;6.950;2024-02-15T11:24:50;101136.16;;;15.15;88.75
49473;BME280;73594;50.944;6.950;2024-02-15T11:27:27;101131.28;;;15.12;88.70
49473;BME280;73594;50.944;6.950;2024-02-15T11:29:57;101125.25;;;15.20;88.26
49473;BME280;73594;50.944;6.950;2024-02-15T11:32:45;101115.97;;;15.31;88.06
49473;BME280;73594;50.944;6.950;2024-02-15T11:46:29;101110.13;;;15.53;87.43
49473;BME280;73594;50.944;6.950;2024-02-15T11:48:57;101108.22;;;15.58;87.14
49473;BME280;73594;50.944;6.950;2024-02-15T11:51:34;101102.78;;;15.48;87.39
49473;BME280;73594;50.944;6.950;2024-02-15T11:54:09;101104.41;;;15.49;86.16
49473;BME280;73594;50.944;6.950;2024-02-15T11:59:10;101106.16;;;15.30;87.57
49473;BME280;73594;50.944;6.950;2024-02-15T12:01:43;101103.41;;;15.35;86.60
49473;BME280;73594;50.944;6.950;2024-02-15T12:04:28;101099.56;;;15.41;87.51
49473;BME280;73594;50.944;6.950;2024-02-15T12:07:13;101091.97;;;15.38;86.70
49473;BME280;73594;50.944;6.950;2024-02-15T12:10:00;101094.59;;;15.63;85.47
49473;BME280;73594;50.944;6.950;2024-02-15T12:12:54;101089.38;;;15.67;85.70
49473;BME280;73594;50.944;6.950;2024-02-15T12:15:38;101094.84;;;15.67;86.45
49473;BME280;73594;50.944;6.950;2024-02-15T12:18:22;101080.84;;;15.79;85.12
49473;BME280;73594;50.944;6.950;2024-02-15T12:21:06;101085.66;;;15.92;84.37
49473;BME280;73594;50.944;6.950;2024-02-15T12:23:35;101078.09;;;15.84;84.40
49473;BME280;73594;50.944;6.950;2024-02-15T12:26:01;101072.88;;;15.87;84.29
49473;BME280;73594;50.944;6.950;2024-02-15T12:28:29;101071.72;;;15.93;83.98
49473;BME280;73594;50.944;6.950;2024-02-15T12:30:55;101069.25;;;16.02;84.31
49473;BME280;73594;50.944;6.950;2024-02-15T12:33:23;101072.78;;;16.03;83.84
49473;BME280;73594;50.944;6.950;2024-02-15T12:35:49;101057.22;;;16.03;83.74
49473;BME280;73594;50.944;6.950;2024-02-15T12:38:17;101050.34;;;16.11;83.28
49473;BME280;73594;50.944;6.950;2024-02-15T12:40:44;101036.31;;;16.22;82.39
49473;BME280;73594;50.944;6.950;2024-02-15T12:43:10;101037.38;;;16.26;82.66
49473;BME280;73594;50.944;6.950;2024-02-15T12:45:37;101034.94;;;16.25;81.57
49473;BME280;73594;50.944;6.950;2024-02-15T12:48:06;101037.59;;;16.30;81.61
49473;BME280;73594;50.944;6.950;2024-02-15T12:50:32;101035.13;;;16.34;82.08
49473;BME280;73594;50.944;6.950;2024-02-15T12:52:58;101041.38;;;16.39;81.59
49473;BME280;73594;50.944;6.950;2024-02-15T12:55:32;101035.63;;;16.41;80.90
49473;BME280;73594;50.944;6.950;2024-02-15T12:58:01;101026.09;;;16.38;81.40
49473;BME280;73594;50.944;6.950;2024-02-15T13:00:30;101016.97;;;16.48;80.79
49473;BME280;73594;50.944;6.950;2024-02-15T13:02:59;101012.81;;;16.55;79.67
49473;BME280;73594;50.944;6.950;2024-02-15T13:05:25;101020.41;;;16.58;79.87
49473;BME280;73594;50.944;6.950;2024-02-15T13:07:52;101012.00;;;16.55;78.98
49473;BME280;73594;50.944;6.950;2024-02-15T13:10:20;101009.19;;;16.60;78.75